createdAt,value
2022-11-27T00:03:02.454Z,100333.13
2022-11-27T00:07:10.771Z,100343.28
2022-11-27T00:11:22.268Z,100340.69
2022-11-27T00:14:13.241Z,100332.56
2022-11-27T00:16:57.574Z,100328.53
2022-11-27T00:25:52.978Z,100323.19
2022-11-27T00:34:21.672Z,100314.31
2022-11-27T00:37:40.607Z,100308.81
2022-11-27T00:40:21.145Z,100293.81
2022-11-27T01:02:42.665Z,100306.78
2022-11-27T01:27:46.771Z,100291.47
2022-11-27T01:43:13.976Z,100272.19
2022-11-27T01:52:24.220Z,100277.94
2022-11-27T02:06:42.736Z,100254.25
2022-11-27T02:09:17.541Z,100242.19
2022-11-27T02:12:32.850Z,100249.59
2022-11-27T02:15:22.307Z,100250.34
2022-11-27T02:18:26.759Z,100242.47
2022-11-27T02:21:06.731Z,100236.84
2022-11-27T02:24:13.702Z,100225.81
2022-11-27T02:37:13.350Z,100214.28
2022-11-27T02:40:13.421Z,100210.22
2022-11-27T02:43:07.893Z,100205.75
2022-11-27T02:50:35.838Z,100197.53
2022-11-27T02:54:34.428Z,100194.53
2022-11-27T02:57:25.838Z,100197.25
2022-11-27T03:00:51.188Z,100201.56
2022-11-27T03:03:29.967Z,100196.50
2022-11-27T03:06:20.688Z,100193.81
2022-11-27T03:20:20.973Z,100173.09
2022-11-27T03:23:07.424Z,100163.97
2022-11-27T03:25:51.137Z,100160.97
2022-11-27T03:28:58.844Z,100151.41
2022-11-27T03:31:49.697Z,100145.91
2022-11-27T03:34:52.255Z,100142.44
2022-11-27T03:38:00.832Z,100137.25
2022-11-27T03:41:47.509Z,100127.22
2022-11-27T03:44:50.644Z,100120.84
2022-11-27T03:47:59.999Z,100108.06
2022-11-27T03:51:25.429Z,100114.75
2022-11-27T03:54:42.420Z,100122.56
2022-11-27T03:58:19.233Z,100114.75
2022-11-27T04:01:47.302Z,100122.38
2022-11-27T04:05:49.906Z,100125.38
2022-11-27T04:17:59.139Z,100115.81
2022-11-27T04:22:00.894Z,100108.19
2022-11-27T04:25:55.993Z,100099.94
2022-11-27T04:30:03.501Z,100080.63
2022-11-27T04:49:07.292Z,100074.00
2022-11-27T05:09:12.402Z,100067.75
2022-11-27T05:12:21.358Z,100072.13
2022-11-27T05:15:05.739Z,100067.25
2022-11-27T05:17:55.460Z,100063.44
2022-11-27T05:20:45.952Z,100055.38
2022-11-27T05:23:22.444Z,100048.34
2022-11-27T05:26:11.811Z,100036.34
2022-11-27T05:28:49.445Z,100038.03
2022-11-27T05:31:30.536Z,100029.69
2022-11-27T05:34:50.872Z,100032.06
2022-11-27T05:38:26.025Z,100015.59
2022-11-27T05:41:13.962Z,100016.94
2022-11-27T05:44:01.950Z,100018.22
2022-11-27T05:47:01.203Z,100012.03
2022-11-27T05:49:49.539Z,99996.25
2022-11-27T05:52:33.659Z,99988.91
2022-11-27T05:55:30.353Z,99986.97
2022-11-27T05:58:15.568Z,99975.81
2022-11-27T06:01:05.138Z,99960.94
2022-11-27T06:03:49.502Z,99962.69
2022-11-27T06:06:32.795Z,99964.44
2022-11-27T06:09:55.242Z,99956.97
2022-11-27T06:12:38.421Z,99957.44
2022-11-27T06:15:30.593Z,99954.09
2022-11-27T06:22:05.385Z,99950.16
2022-11-27T06:24:52.391Z,99945.56
2022-11-27T06:27:34.494Z,99955.47
2022-11-27T06:30:18.401Z,99956.22
2022-11-27T06:32:57.008Z,99963.53
2022-11-27T06:35:34.744Z,99961.97
2022-11-27T06:38:40.620Z,99952.69
2022-11-27T06:41:47.245Z,99950.53
2022-11-27T06:44:59.089Z,99952.25
2022-11-27T06:48:09.780Z,99955.00
2022-11-27T06:58:41.105Z,99939.13
2022-11-27T07:09:38.643Z,99934.81
2022-11-27T07:12:30.432Z,99936.31
2022-11-27T07:16:37.645Z,99939.78
2022-11-27T07:19:26.657Z,99955.31
2022-11-27T07:22:50.212Z,99942.84
2022-11-27T07:25:40.585Z,99946.13
2022-11-27T07:31:38.228Z,99930.59
2022-11-27T07:38:06.580Z,99890.34
2022-11-27T07:40:41.223Z,99874.41
2022-11-27T07:43:25.106Z,99875.28
2022-11-27T07:51:50.885Z,99854.41
2022-11-27T07:55:47.094Z,99857.53
2022-11-27T07:58:34.291Z,99857.50
2022-11-27T08:01:29.580Z,99856.72
2022-11-27T08:04:20.870Z,99862.28
2022-11-27T08:06:58.628Z,99851.44
2022-11-27T08:09:48.932Z,99844.97
2022-11-27T08:12:34.814Z,99852.63
2022-11-27T08:15:38.269Z,99850.59
2022-11-27T08:18:41.735Z,99831.28
2022-11-27T08:21:22.586Z,99835.25
2022-11-27T08:24:51.948Z,99832.31
2022-11-27T08:30:46.137Z,99816.22
2022-11-27T08:33:41.020Z,99782.50
2022-11-27T08:36:19.158Z,99781.16
2022-11-27T08:40:14.326Z,99780.59
2022-11-27T08:43:28.299Z,99788.19
2022-11-27T08:46:34.934Z,99753.50
2022-11-27T08:50:05.212Z,99756.63
2022-11-27T08:53:13.000Z,99753.13
2022-11-27T08:55:53.812Z,99760.34
2022-11-27T08:58:57.834Z,99771.59
2022-11-27T09:01:47.937Z,99762.22
2022-11-27T09:04:34.058Z,99766.34
2022-11-27T09:07:30.267Z,99770.16
2022-11-27T09:10:19.577Z,99782.88
2022-11-27T09:13:06.547Z,99780.41
2022-11-27T09:16:02.805Z,99782.91
2022-11-27T09:18:45.944Z,99785.09
2022-11-27T09:21:18.320Z,99792.09
2022-11-27T09:23:52.101Z,99785.75
2022-11-27T09:26:49.925Z,99779.44
2022-11-27T09:30:09.044Z,99777.94
2022-11-27T09:34:01.111Z,99773.88
2022-11-27T09:36:55.471Z,99776.28
2022-11-27T09:40:10.164Z,99778.13
2022-11-27T09:43:12.771Z,99755.69
2022-11-27T09:46:22.166Z,99758.00
2022-11-27T09:49:13.246Z,99745.53
2022-11-27T09:52:48.621Z,99732.81
2022-11-27T09:55:59.767Z,99719.53
2022-11-27T09:59:14.562Z,99730.72
2022-11-27T10:01:51.297Z,99738.22
2022-11-27T10:04:51.261Z,99727.97
2022-11-27T10:07:50.125Z,99720.19
2022-11-27T10:10:42.808Z,99712.19
2022-11-27T10:13:21.657Z,99724.03
2022-11-27T10:16:09.114Z,99727.19
2022-11-27T10:19:22.061Z,99723.16
2022-11-27T10:23:03.885Z,99731.63
2022-11-27T10:26:26.713Z,99715.09
2022-11-27T10:29:30.703Z,99715.53
2022-11-27T10:32:47.264Z,99695.66
2022-11-27T10:35:40.104Z,99702.63
2022-11-27T10:38:37.541Z,99695.97
2022-11-27T10:41:48.931Z,99707.78
2022-11-27T10:49:19.049Z,99676.13
2022-11-27T10:52:06.965Z,99667.34
2022-11-27T10:54:44.751Z,99674.41
2022-11-27T10:57:37.315Z,99682.13
2022-11-27T11:00:42.400Z,99683.09
2022-11-27T11:03:42.050Z,99657.63
2022-11-27T11:06:36.103Z,99694.44
2022-11-27T11:10:09.224Z,99695.34
2022-11-27T11:13:19.252Z,99677.19
2022-11-27T11:16:14.914Z,99661.19
2022-11-27T11:19:09.807Z,99684.38
2022-11-27T11:22:09.192Z,99707.75
2022-11-27T11:24:57.790Z,99685.09
2022-11-27T11:27:35.684Z,99673.13
2022-11-27T11:30:10.131Z,99683.06
2022-11-27T11:32:46.466Z,99680.69
2022-11-27T11:35:41.346Z,99641.97
2022-11-27T11:38:42.562Z,99634.22
2022-11-27T11:41:24.226Z,99618.72
2022-11-27T11:44:24.123Z,99626.41
2022-11-27T11:47:44.491Z,99631.22
2022-11-27T11:50:43.495Z,99605.41
2022-11-27T11:54:17.438Z,99560.09
2022-11-27T11:57:05.660Z,99565.69
2022-11-27T12:00:18.222Z,99594.91
2022-11-27T12:03:30.349Z,99601.72
2022-11-27T12:10:36.820Z,99644.75
2022-11-27T12:14:01.845Z,99630.56
2022-11-27T12:17:30.678Z,99600.09
2022-11-27T12:20:37.936Z,99559.84
2022-11-27T12:23:40.046Z,99552.69
2022-11-27T12:26:38.424Z,99551.78
2022-11-27T12:29:35.841Z,99547.00
2022-11-27T12:32:40.891Z,99555.16
2022-11-27T12:35:54.178Z,99552.41
2022-11-27T12:38:54.752Z,99537.97
2022-11-27T12:42:15.708Z,99549.63
2022-11-27T12:45:14.680Z,99544.31
2022-11-27T12:48:07.352Z,99535.41
2022-11-27T12:51:51.062Z,99525.41
2022-11-27T12:54:50.343Z,99543.16
2022-11-27T12:57:40.423Z,99533.59
2022-11-27T13:00:18.529Z,99506.44
2022-11-27T13:03:01.920Z,99499.09
2022-11-27T13:05:42.337Z,99496.94
2022-11-27T13:08:23.610Z,99507.09
2022-11-27T13:11:14.747Z,99507.25
2022-11-27T13:13:54.805Z,99509.88
2022-11-27T13:16:49.605Z,99491.81
2022-11-27T13:19:43.788Z,99486.53
2022-11-27T13:22:29.388Z,99476.41
2022-11-27T13:25:09.173Z,99480.75
2022-11-27T13:27:40.596Z,99473.00
2022-11-27T13:30:26.578Z,99479.69
2022-11-27T13:33:03.035Z,99486.88
2022-11-27T13:35:38.688Z,99485.66
2022-11-27T13:38:14.844Z,99481.19
2022-11-27T13:40:50.948Z,99480.13
2022-11-27T13:44:11.655Z,99462.13
2022-11-27T13:46:49.842Z,99458.13
2022-11-27T13:49:38.586Z,99457.47
2022-11-27T13:52:15.039Z,99448.88
2022-11-27T13:55:00.841Z,99440.88
2022-11-27T13:57:40.002Z,99455.41
2022-11-27T14:00:17.933Z,99463.53
2022-11-27T14:02:50.553Z,99465.00
2022-11-27T14:05:50.590Z,99447.72
2022-11-27T14:08:33.932Z,99445.31
2022-11-27T14:11:13.961Z,99445.91
2022-11-27T14:13:50.885Z,99439.72
2022-11-27T14:20:50.255Z,99458.09
2022-11-27T14:23:52.125Z,99446.16
2022-11-27T14:26:51.781Z,99449.06
2022-11-27T14:29:30.969Z,99447.00
2022-11-27T14:32:14.310Z,99452.97
2022-11-27T14:34:54.871Z,99453.78
2022-11-27T14:39:12.958Z,99435.59
2022-11-27T14:42:03.135Z,99419.09
2022-11-27T14:45:51.006Z,99411.44
2022-11-27T14:54:13.004Z,99381.75
2022-11-27T14:57:18.364Z,99387.59
2022-11-27T15:00:48.980Z,99386.84
2022-11-27T15:13:54.284Z,99347.78
2022-11-27T15:16:59.549Z,99327.88
2022-11-27T15:19:40.468Z,99337.25
2022-11-27T15:22:22.133Z,99323.69
2022-11-27T15:25:06.903Z,99321.38
2022-11-27T15:27:54.377Z,99308.47
2022-11-27T15:30:30.370Z,99295.13
2022-11-27T15:33:06.323Z,99286.25
2022-11-27T15:35:47.819Z,99291.69
2022-11-27T15:39:33.190Z,99273.94
2022-11-27T15:42:07.271Z,99264.50
2022-11-27T15:45:54.605Z,99258.41
2022-11-27T15:49:27.740Z,99239.44
2022-11-27T15:56:50.944Z,99214.25
2022-11-27T15:59:23.474Z,99184.88
2022-11-27T16:03:00.521Z,99183.97
2022-11-27T16:06:28.078Z,99175.78
2022-11-27T16:09:13.232Z,99165.47
2022-11-27T16:20:50.651Z,99109.31
2022-11-27T16:29:03.368Z,99097.72
2022-11-27T16:36:10.860Z,99078.66
2022-11-27T16:45:26.087Z,99062.19
2022-11-27T16:53:16.777Z,99040.56
2022-11-27T16:55:46.763Z,99032.34
2022-11-27T16:58:19.243Z,99021.41
2022-11-27T17:01:55.178Z,99023.94
2022-11-27T17:04:44.037Z,98999.66
2022-11-27T17:07:25.378Z,98986.13
2022-11-27T17:10:07.114Z,98980.00
2022-11-27T17:12:54.384Z,98969.88
2022-11-27T17:15:29.030Z,98967.91
2022-11-27T17:18:54.039Z,98959.16
2022-11-27T17:30:53.377Z,98887.41
2022-11-27T17:33:41.394Z,98858.88
2022-11-27T17:36:11.033Z,98837.63
2022-11-27T17:38:43.673Z,98820.84
2022-11-27T17:41:16.677Z,98761.09
2022-11-27T17:43:46.760Z,98705.91
2022-11-27T17:46:24.172Z,98724.22
2022-11-27T17:48:56.555Z,98721.84
2022-11-27T17:51:32.357Z,98780.44
2022-11-27T17:54:02.960Z,98778.75
2022-11-27T17:56:34.234Z,98802.81
2022-11-27T17:59:04.344Z,98767.81
2022-11-27T18:01:35.422Z,98758.13
2022-11-27T18:04:06.138Z,98747.03
2022-11-27T18:06:37.035Z,98737.09
2022-11-27T18:09:06.466Z,98715.72
2022-11-27T18:11:37.413Z,98706.03
2022-11-27T18:14:06.737Z,98703.97
2022-11-27T18:16:43.614Z,98673.84
2022-11-27T18:19:13.559Z,98661.78
2022-11-27T18:21:43.011Z,98660.31
2022-11-27T18:24:28.180Z,98647.09
2022-11-27T18:27:14.316Z,98650.19
2022-11-27T18:29:47.074Z,98679.38
2022-11-27T18:32:18.242Z,98686.75
2022-11-27T18:34:47.968Z,98662.50
2022-11-27T18:37:17.036Z,98660.06
2022-11-27T18:39:46.013Z,98662.81
2022-11-27T18:42:16.364Z,98669.53
2022-11-27T18:44:48.282Z,98647.88
2022-11-27T18:47:17.718Z,98653.69
2022-11-27T18:49:49.973Z,98649.19
2022-11-27T18:52:18.774Z,98627.50
2022-11-27T18:54:48.258Z,98625.31
2022-11-27T18:57:17.915Z,98615.56
2022-11-27T18:59:49.115Z,98600.13
2022-11-27T19:02:20.852Z,98591.25
2022-11-27T19:04:53.978Z,98584.19
2022-11-27T19:07:52.726Z,98590.22
2022-11-27T19:10:22.600Z,98583.25
2022-11-27T19:12:52.635Z,98568.16
2022-11-27T19:15:25.846Z,98554.53
2022-11-27T19:17:57.719Z,98543.59
2022-11-27T19:20:30.349Z,98518.78
2022-11-27T19:23:02.936Z,98507.78
2022-11-27T19:25:40.552Z,98480.03
2022-11-27T19:28:14.720Z,98464.03
2022-11-27T19:30:45.862Z,98459.53
2022-11-27T19:33:14.841Z,98454.75
2022-11-27T19:35:46.070Z,98455.13
2022-11-27T19:38:16.353Z,98444.16
2022-11-27T19:40:46.339Z,98423.50
2022-11-27T19:43:17.273Z,98427.28
2022-11-27T19:45:46.885Z,98413.63
2022-11-27T19:48:23.177Z,98410.19
2022-11-27T19:51:02.734Z,98417.31
2022-11-27T19:53:32.988Z,98393.00
2022-11-27T19:56:02.645Z,98390.31
2022-11-27T19:58:34.001Z,98374.19
2022-11-27T20:01:14.877Z,98384.50
2022-11-27T20:03:46.587Z,98388.81
2022-11-27T20:06:24.925Z,98377.88
2022-11-27T20:09:00.505Z,98376.41
2022-11-27T20:11:35.107Z,98358.34
2022-11-27T20:14:07.217Z,98358.63
2022-11-27T20:16:47.367Z,98359.59
2022-11-27T20:19:33.425Z,98354.25
2022-11-27T20:22:05.252Z,98369.41
2022-11-27T20:24:40.743Z,98357.19
2022-11-27T20:27:22.583Z,98363.47
2022-11-27T20:30:01.535Z,98369.25
2022-11-27T20:32:34.555Z,98359.97
2022-11-27T20:35:05.044Z,98370.44
2022-11-27T20:37:36.676Z,98349.41
2022-11-27T20:40:10.179Z,98327.84
2022-11-27T20:42:40.975Z,98323.81
2022-11-27T20:45:10.547Z,98313.78
2022-11-27T20:47:40.931Z,98315.19
2022-11-27T20:50:11.967Z,98294.72
2022-11-27T20:52:46.215Z,98279.03
2022-11-27T20:55:18.991Z,98276.31
2022-11-27T20:57:54.627Z,98254.44
2022-11-27T21:00:33.116Z,98251.97
2022-11-27T21:03:05.996Z,98246.06
2022-11-27T21:05:46.429Z,98241.22
2022-11-27T21:08:22.849Z,98229.91
2022-11-27T21:11:02.315Z,98208.63
2022-11-27T21:13:34.288Z,98188.94
2022-11-27T21:16:10.219Z,98199.44
2022-11-27T21:28:17.031Z,98200.53
2022-11-27T21:30:50.828Z,98192.50
2022-11-27T21:33:20.674Z,98205.13
2022-11-27T21:35:58.765Z,98211.59
2022-11-27T21:38:30.177Z,98198.91
2022-11-27T21:41:00.651Z,98192.72
2022-11-27T21:43:29.476Z,98197.28
2022-11-27T21:46:08.680Z,98207.84
2022-11-27T21:48:38.248Z,98212.41
2022-11-27T21:51:09.825Z,98214.06
2022-11-27T21:53:41.885Z,98214.59
2022-11-27T21:56:22.124Z,98212.72
2022-11-27T21:59:03.851Z,98204.34
2022-11-27T22:02:01.952Z,98208.91
2022-11-27T22:04:56.382Z,98195.16
2022-11-27T22:07:48.388Z,98201.63
2022-11-27T22:10:22.335Z,98176.28
2022-11-27T22:13:09.457Z,98173.59
2022-11-27T22:15:50.012Z,98176.00
2022-11-27T22:18:22.651Z,98184.34
2022-11-27T22:20:55.414Z,98198.13
2022-11-27T22:23:34.158Z,98195.16
2022-11-27T22:26:06.595Z,98197.84
2022-11-27T22:28:38.547Z,98207.16
2022-11-27T22:32:15.264Z,98209.75
2022-11-27T22:34:54.821Z,98197.97
2022-11-27T22:37:34.937Z,98192.03
2022-11-27T22:40:06.591Z,98202.34
2022-11-27T22:56:26.484Z,98218.09
2022-11-27T22:59:43.389Z,98224.22
2022-11-27T23:03:07.276Z,98233.53
2022-11-27T23:06:37.184Z,98275.91
2022-11-27T23:09:50.119Z,98287.72
2022-11-27T23:12:50.574Z,98299.69
2022-11-27T23:15:30.930Z,98296.16
2022-11-27T23:18:22.441Z,98293.78
2022-11-27T23:21:54.298Z,98312.41
2022-11-27T23:29:14.863Z,98317.09
2022-11-27T23:35:49.706Z,98312.69
2022-11-27T23:39:01.757Z,98314.38
2022-11-27T23:41:54.580Z,98322.50
2022-11-27T23:45:14.228Z,98331.84
2022-11-27T23:52:17.233Z,98343.00
2022-11-27T23:55:01.687Z,98353.19
2022-11-27T23:58:07.042Z,98361.59
